Terminal Aerodrome Forecast
Issued by NWS

Home | Current Version | Previous Version | Text Only | Print | Product List | Glossary On
Versions: 1 2 3 4 5 6 7 8 9 10 11 12 13 14
000
FTUS45 KABQ 130500
TAFROW
TAF
KROW 130531Z 1306/1406 16009KT P6SM SCT120 BKN200
     FM131200 15007KT P6SM SKC
     FM132000 16011G18KT P6SM FEW080
     FM140200 18008KT P6SM SCT100 BKN200=

USA.gov is the U.S. government's official web portal to all federal, state and local government web resources and services.